x

Port Stanley (45132) Wave Buoy

4:00pm - Thu 27th Jul 2017 All times are CDT. -5 hours from GMT.

  • Sig Wave height 0.3ft
  • Peak Period 3s
  • Wind
    2mph, 4mph gusts
  • Sea Temp 75°f
  • Air Temp 75°f
  • Sea Pressure 1011.8mb
  • Port Stanley
  • Port Stanley

More Historic Weather Station data

Upgrade to MSW Pro to gain access to the past 30 days of data for over 8000 Wavebouys and Weather Stations around the globe.

Join Pro

Comparision Forecast

View Surf forecast
   
Thu 07/27 4:00pm 0.3ft 3s 2 4 mph 1011.8mb 75f 75f
3:00pm 0.3ft 3s 4 4 mph 1012.3mb 74f 74f
2:00pm 0.3ft 3s 4 4 mph 1012.7mb 74f 74f
1:00pm 0.3ft 3s 2 4 mph 1012.9mb 74f 74f
12:00pm 0.3ft 3s 2 2 mph 1013.1mb 74f 73f
11:00am 0.3ft 3s 2 4 mph 1013.5mb 73f 73f
10:00am 0.3ft 3s 2 2 mph 1013.7mb 73f 73f
9:00am 0.3ft 3s 4 7 mph 1013.7mb 73f 73f
8:00am 0.3ft 3s 2 4 mph 1014mb 72f 73f
7:00am 0.7ft 3s 4 7 mph 1014.1mb 72f 72f
6:00am 0.7ft 3s 4 4 mph 1014.1mb 72f 72f
5:00am 0.7ft 3s 4 4 mph 1014mb 72f 72f
4:00am 1ft 3s 7 7 mph 1014.3mb 72f 72f
3:00am 1ft 3s 7 9 mph 1014.6mb 72f 73f
2:00am 1ft 3s 7 9 mph 1014.8mb 72f 73f
1:00am 1.3ft 3s 9 11 mph 1015mb 72f 72f
12:00am 1ft 3s 11 13 mph 1015.5mb 72f 73f
Wed 07/26 11:00pm 0.7ft 2s 13 16 mph 1015.8mb 72f 73f
10:00pm 0.3ft 2s 13 16 mph 1016.1mb 72f 73f
9:00pm 0.3ft 3s 11 11 mph 1016.6mb 72f 73f
8:00pm 0.3ft 2s 7 9 mph 1017.1mb 73f 73f
7:00pm 0.3ft 2s 9 9 mph 1017.1mb 73f 72f
6:00pm 0.3ft 2s 2 2 mph 1017.9mb 73f 72f
4:00pm 0.7ft 2s 7 9 mph 1018.3mb 73f 71f
3:00pm 0.7ft 3s 9 11 mph 1018.7mb 73f 71f
2:00pm 0.3ft 3s 11 13 mph 1018.5mb 73f 70f
1:00pm 0.3ft 3s 9 9 mph 1019.1mb 73f 70f
12:00pm 0.3ft 3s 7 9 mph 1019.9mb 73f 69f
11:00am 0.7ft 3s 4 4 mph 1021.2mb 73f 69f
10:00am 0.7ft 4s 4 4 mph 1021.6mb 72f 69f
9:00am 0.7ft 3s 4 7 mph 1022mb 72f 69f
8:00am 0.7ft 4s 7 7 mph 1021.7mb 72f 69f
7:00am 1ft 4s 4 7 mph 1021.8mb 72f 69f
6:00am 1ft 4s 4 7 mph 1021.8mb 72f 68f
5:00am 1ft 4s 7 9 mph 1021.8mb 72f 68f
4:00am 1.3ft 4s 7 9 mph 1022.1mb 72f 68f
3:00am 1.3ft 4s 9 13 mph 1022mb 72f 68f
2:00am 1.3ft 3s 11 13 mph 1022.5mb 72f 69f
1:00am 1.3ft 3s 11 16 mph 1022.4mb 72f 70f
12:00am 1ft 3s 13 16 mph 1022.6mb 72f 70f
Tue 07/25 11:00pm 0.7ft 3s 11 16 mph 1022.9mb 72f 69f
10:00pm 0.7ft 3s 9 13 mph 1022.9mb 73f 69f
9:00pm 0.7ft 3s 9 11 mph 1023.3mb 73f 69f
8:00pm 0.7ft 2s 9 9 mph 1023.2mb 73f 69f
7:00pm 0.7ft 2s 9 13 mph 1023mb 74f 69f
6:00pm 0.3ft 4s 9 11 mph 1022.8mb 74f 69f
5:00pm 0.3ft 3s 9 13 mph 1022.7mb 74f 68f
4:00pm 0.3ft 4s 7 11 mph 1023.2mb 74f 68f
3:00pm 0.3ft 4s 9 11 mph 1023.1mb 74f 68f
2:00pm 0.3ft 3s 7 9 mph 1022.9mb 75f 67f
1:00pm 0.7ft 3s 4 7 mph 1023.1mb 75f 67f
12:00pm 0.7ft 2s 2 4 mph 1023.3mb 74f 66f
11:00am 0.7ft 2s 4 4 mph 1023.1mb 73f 65f
10:00am 0.7ft 3s 7 9 mph 1022.9mb 73f 65f
9:00am 1ft 3s 9 13 mph 1022.6mb 72f 64f
8:00am 1ft 3s 11 16 mph 1022.4mb 72f 64f
7:00am 1ft 3s 11 16 mph 1021.7mb 72f 64f
6:00am 1.3ft 3s 16
mph
1020.7mb 72f 63f
5:00am 1.3ft 3s 20 22 mph 1019.7mb 73f 64f
4:00am 1ft 3s 16 20 mph 1019.2mb 73f 63f
3:00am 1ft 3s 13 16 mph 1018.8mb 72f 64f
2:00am 1.3ft 3s 16 18 mph 1018.4mb 73f 64f
1:00am 1.6ft 3s 16 18 mph 1018.3mb 73f 65f
12:00am 1.6ft 4s 18 22 mph 1017.9mb 73f 64f
Mon 07/24 11:00pm 2ft 4s 20 22 mph 1017.2mb 73f 64f
10:00pm 2ft 4s 22 27 mph 1016.6mb 73f 65f
9:00pm 2.5ft 4s 20 27 mph 1015.9mb 73f 65f
8:00pm 2.5ft 4s 20 25 mph 1015.1mb 73f 66f
7:00pm 2.5ft 4s 22 27 mph 1014.6mb 73f 66f
6:00pm 3ft 4s 22 27 mph 1013.8mb 73f 66f
5:00pm 3ft 4s 25 29 mph 1013.3mb 73f 66f
4:00pm 3ft 4s 25 29 mph 1012.7mb 74f 67f
3:00pm 3ft 4s 25 31 mph 1012.1mb 74f 67f
2:00pm 2.5ft 4s 25 29 mph 1011.7mb 74f 68f
1:00pm 3ft 4s 22 27 mph 1011.3mb 74f 68f
11:00am 2.5ft 4s 22 27 mph 1010.4mb 75f 68f
10:00am 2ft 4s 20 25 mph 1010.2mb 75f 67f
9:00am 2ft 4s 18 22 mph 1010.1mb 75f 67f
7:00am 2ft 4s 20 27 mph 1008.9mb 75f 67f
6:00am  -   -  18
mph
1008.7mb 75f 68f
5:00am 1.3ft 3s 18 20 mph 1008.1mb 75f 69f
4:00am 1.6ft 3s 16 18 mph 1007.5mb 75f 69f
3:00am 1.6ft 3s 18 22 mph 1006.9mb 75f 70f
2:00am 0.7ft 2s 18 22 mph 1007mb 75f 70f
1:00am 0.3ft 4s 13 16 mph 1006.7mb 75f 73f
12:00am 0.3ft 3s 9 11 mph 1006.7mb 75f 73f
Sun 07/23 11:00pm 0.7ft 3s 2 4 mph 1007mb 76f 69f